sensor_id;sensor_type;location;lat;lon;timestamp;P1;durP1;ratioP1;P2;durP2;ratioP2
25615;SDS011;13482;48.234;13.006;2022-12-24T00:01:17;0.77;;;0.30;;
25615;SDS011;13482;48.234;13.006;2022-12-24T00:03:44;0.50;;;0.30;;
25615;SDS011;13482;48.234;13.006;2022-12-24T00:06:15;0.52;;;0.30;;
25615;SDS011;13482;48.234;13.006;2022-12-24T00:08:49;0.22;;;0.15;;
25615;SDS011;13482;48.234;13.006;2022-12-24T00:11:16;0.50;;;0.15;;
25615;SDS011;13482;48.234;13.006;2022-12-24T00:13:44;0.20;;;0.10;;
25615;SDS011;13482;48.234;13.006;2022-12-24T00:16:12;0.10;;;0.00;;
25615;SDS011;13482;48.234;13.006;2022-12-24T00:18:39;0.10;;;0.10;;
25615;SDS011;13482;48.234;13.006;2022-12-24T00:21:12;0.45;;;0.05;;
25615;SDS011;13482;48.234;13.006;2022-12-24T00:23:41;0.25;;;0.13;;
25615;SDS011;13482;48.234;13.006;2022-12-24T00:26:08;0.40;;;0.10;;
25615;SDS011;13482;48.234;13.006;2022-12-24T00:28:35;0.13;;;0.10;;
25615;SDS011;13482;48.234;13.006;2022-12-24T00:31:06;0.08;;;0.08;;
25615;SDS011;13482;48.234;13.006;2022-12-24T00:33:44;0.40;;;0.10;;
25615;SDS011;13482;48.234;13.006;2022-12-24T00:36:12;0.88;;;0.20;;
25615;SDS011;13482;48.234;13.006;2022-12-24T00:38:39;0.10;;;0.10;;
25615;SDS011;13482;48.234;13.006;2022-12-24T00:41:07;0.32;;;0.15;;
25615;SDS011;13482;48.234;13.006;2022-12-24T00:43:52;0.43;;;0.10;;
25615;SDS011;13482;48.234;13.006;2022-12-24T00:46:32;1.00;;;0.22;;
25615;SDS011;13482;48.234;13.006;2022-12-24T00:49:00;2.15;;;0.40;;
25615;SDS011;13482;48.234;13.006;2022-12-24T00:51:27;1.50;;;0.20;;
25615;SDS011;13482;48.234;13.006;2022-12-24T00:53:55;0.22;;;0.15;;
25615;SDS011;13482;48.234;13.006;2022-12-24T00:56:22;0.20;;;0.10;;
25615;SDS011;13482;48.234;13.006;2022-12-24T00:58:50;0.73;;;0.20;;
25615;SDS011;13482;48.234;13.006;2022-12-24T01:01:18;0.00;;;0.00;;
25615;SDS011;13482;48.234;13.006;2022-12-24T01:03:46;0.30;;;0.20;;
25615;SDS011;13482;48.234;13.006;2022-12-24T01:06:16;0.40;;;0.20;;
25615;SDS011;13482;48.234;13.006;2022-12-24T01:08:49;0.95;;;0.20;;
25615;SDS011;13482;48.234;13.006;2022-12-24T01:11:17;0.20;;;0.10;;
25615;SDS011;13482;48.234;13.006;2022-12-24T01:13:44;0.52;;;0.20;;
25615;SDS011;13482;48.234;13.006;2022-12-24T01:16:13;0.20;;;0.10;;
25615;SDS011;13482;48.234;13.006;2022-12-24T01:18:46;0.38;;;0.20;;
25615;SDS011;13482;48.234;13.006;2022-12-24T01:21:14;0.60;;;0.20;;
25615;SDS011;13482;48.234;13.006;2022-12-24T01:23:41;1.17;;;0.15;;
25615;SDS011;13482;48.234;13.006;2022-12-24T01:26:08;0.75;;;0.22;;
25615;SDS011;13482;48.234;13.006;2022-12-24T01:28:40;0.60;;;0.22;;
25615;SDS011;13482;48.234;13.006;2022-12-24T01:31:14;0.20;;;0.10;;
25615;SDS011;13482;48.234;13.006;2022-12-24T01:33:44;1.13;;;0.30;;
25615;SDS011;13482;48.234;13.006;2022-12-24T01:36:12;1.38;;;0.20;;
25615;SDS011;13482;48.234;13.006;2022-12-24T01:38:40;0.30;;;0.20;;
25615;SDS011;13482;48.234;13.006;2022-12-24T01:41:12;0.63;;;0.30;;
25615;SDS011;13482;48.234;13.006;2022-12-24T01:49:50;0.55;;;0.25;;
25615;SDS011;13482;48.234;13.006;2022-12-24T01:52:25;0.82;;;0.20;;
25615;SDS011;13482;48.234;13.006;2022-12-24T01:55:08;0.98;;;0.30;;
25615;SDS011;13482;48.234;13.006;2022-12-24T01:57:41;1.40;;;0.40;;
25615;SDS011;13482;48.234;13.006;2022-12-24T02:00:14;1.02;;;0.40;;
25615;SDS011;13482;48.234;13.006;2022-12-24T02:02:45;0.57;;;0.20;;
25615;SDS011;13482;48.234;13.006;2022-12-24T02:05:22;0.95;;;0.20;;
25615;SDS011;13482;48.234;13.006;2022-12-24T02:08:02;1.65;;;0.30;;
25615;SDS011;13482;48.234;13.006;2022-12-24T02:10:30;0.52;;;0.20;;
25615;SDS011;13482;48.234;13.006;2022-12-24T02:12:57;1.10;;;0.32;;
25615;SDS011;13482;48.234;13.006;2022-12-24T02:15:26;1.25;;;0.30;;
25615;SDS011;13482;48.234;13.006;2022-12-24T02:21:18;0.82;;;0.28;;
25615;SDS011;13482;48.234;13.006;2022-12-24T02:24:04;1.02;;;0.10;;
25615;SDS011;13482;48.234;13.006;2022-12-24T02:27:27;0.93;;;0.28;;
25615;SDS011;13482;48.234;13.006;2022-12-24T02:30:16;0.60;;;0.20;;
25615;SDS011;13482;48.234;13.006;2022-12-24T02:35:35;1.85;;;0.40;;
25615;SDS011;13482;48.234;13.006;2022-12-24T02:38:46;0.57;;;0.20;;
25615;SDS011;13482;48.234;13.006;2022-12-24T02:41:32;0.90;;;0.30;;
25615;SDS011;13482;48.234;13.006;2022-12-24T02:44:29;1.10;;;0.28;;
25615;SDS011;13482;48.234;13.006;2022-12-24T02:47:22;0.98;;;0.20;;
25615;SDS011;13482;48.234;13.006;2022-12-24T02:49:52;0.65;;;0.20;;
25615;SDS011;13482;48.234;13.006;2022-12-24T02:52:36;0.45;;;0.20;;
25615;SDS011;13482;48.234;13.006;2022-12-24T03:07:12;0.28;;;0.10;;
25615;SDS011;13482;48.234;13.006;2022-12-24T03:09:55;0.60;;;0.20;;
25615;SDS011;13482;48.234;13.006;2022-12-24T03:12:47;0.30;;;0.10;;
25615;SDS011;13482;48.234;13.006;2022-12-24T03:15:20;0.85;;;0.20;;
25615;SDS011;13482;48.234;13.006;2022-12-24T03:17:51;0.52;;;0.25;;
25615;SDS011;13482;48.234;13.006;2022-12-24T03:20:27;0.68;;;0.20;;
25615;SDS011;13482;48.234;13.006;2022-12-24T03:23:02;0.45;;;0.28;;
25615;SDS011;13482;48.234;13.006;2022-12-24T03:25:30;0.25;;;0.20;;
25615;SDS011;13482;48.234;13.006;2022-12-24T03:28:00;0.98;;;0.30;;
25615;SDS011;13482;48.234;13.006;2022-12-24T03:30:31;1.33;;;0.40;;
25615;SDS011;13482;48.234;13.006;2022-12-24T03:32:58;0.82;;;0.20;;
25615;SDS011;13482;48.234;13.006;2022-12-24T03:35:25;1.13;;;0.28;;
25615;SDS011;13482;48.234;13.006;2022-12-24T03:37:53;0.85;;;0.20;;
25615;SDS011;13482;48.234;13.006;2022-12-24T03:40:20;0.85;;;0.30;;
25615;SDS011;13482;48.234;13.006;2022-12-24T03:42:47;0.75;;;0.30;;
25615;SDS011;13482;48.234;13.006;2022-12-24T03:45:14;0.70;;;0.20;;
25615;SDS011;13482;48.234;13.006;2022-12-24T03:47:41;0.80;;;0.20;;
25615;SDS011;13482;48.234;13.006;2022-12-24T03:50:08;0.98;;;0.30;;
25615;SDS011;13482;48.234;13.006;2022-12-24T03:52:36;2.13;;;0.20;;
25615;SDS011;13482;48.234;13.006;2022-12-24T03:55:03;0.57;;;0.35;;
25615;SDS011;13482;48.234;13.006;2022-12-24T03:57:31;0.45;;;0.30;;
25615;SDS011;13482;48.234;13.006;2022-12-24T03:59:58;0.70;;;0.28;;
25615;SDS011;13482;48.234;13.006;2022-12-24T04:02:25;0.55;;;0.30;;
25615;SDS011;13482;48.234;13.006;2022-12-24T04:04:52;0.88;;;0.40;;
25615;SDS011;13482;48.234;13.006;2022-12-24T04:07:20;0.80;;;0.30;;
25615;SDS011;13482;48.234;13.006;2022-12-24T04:09:47;0.65;;;0.35;;
25615;SDS011;13482;48.234;13.006;2022-12-24T04:12:14;1.40;;;0.47;;
25615;SDS011;13482;48.234;13.006;2022-12-24T04:14:41;1.10;;;0.35;;
25615;SDS011;13482;48.234;13.006;2022-12-24T04:17:08;0.65;;;0.28;;
25615;SDS011;13482;48.234;13.006;2022-12-24T04:19:35;1.00;;;0.22;;
25615;SDS011;13482;48.234;13.006;2022-12-24T04:22:02;1.38;;;0.40;;
25615;SDS011;13482;48.234;13.006;2022-12-24T04:24:29;2.88;;;0.40;;
25615;SDS011;13482;48.234;13.006;2022-12-24T04:26:57;1.23;;;0.40;;
25615;SDS011;13482;48.234;13.006;2022-12-24T04:29:24;1.55;;;0.40;;
25615;SDS011;13482;48.234;13.006;2022-12-24T04:31:51;1.00;;;0.50;;
25615;SDS011;13482;48.234;13.006;2022-12-24T04:34:18;0.45;;;0.28;;
25615;SDS011;13482;48.234;13.006;2022-12-24T04:36:45;1.83;;;0.50;;
25615;SDS011;13482;48.234;13.006;2022-12-24T04:39:12;1.70;;;0.57;;
25615;SDS011;13482;48.234;13.006;2022-12-24T04:41:39;0.95;;;0.50;;
25615;SDS011;13482;48.234;13.006;2022-12-24T04:44:07;0.98;;;0.25;;
25615;SDS011;13482;48.234;13.006;2022-12-24T04:46:35;1.40;;;0.45;;
25615;SDS011;13482;48.234;13.006;2022-12-24T04:49:02;2.15;;;0.57;;
25615;SDS011;13482;48.234;13.006;2022-12-24T04:51:30;1.23;;;0.50;;
25615;SDS011;13482;48.234;13.006;2022-12-24T04:53:57;1.02;;;0.40;;
25615;SDS011;13482;48.234;13.006;2022-12-24T04:56:26;0.70;;;0.30;;
25615;SDS011;13482;48.234;13.006;2022-12-24T04:58:57;0.68;;;0.40;;
25615;SDS011;13482;48.234;13.006;2022-12-24T05:01:26;1.23;;;0.40;;
25615;SDS011;13482;48.234;13.006;2022-12-24T05:03:56;4.88;;;0.93;;
25615;SDS011;13482;48.234;13.006;2022-12-24T05:06:25;0.45;;;0.25;;
25615;SDS011;13482;48.234;13.006;2022-12-24T05:08:56;1.17;;;0.40;;
25615;SDS011;13482;48.234;13.006;2022-12-24T05:11:24;0.43;;;0.30;;
25615;SDS011;13482;48.234;13.006;2022-12-24T05:13:52;5.85;;;0.70;;
25615;SDS011;13482;48.234;13.006;2022-12-24T05:16:19;0.63;;;0.38;;
25615;SDS011;13482;48.234;13.006;2022-12-24T05:18:48;1.50;;;0.50;;
25615;SDS011;13482;48.234;13.006;2022-12-24T05:21:16;0.40;;;0.30;;
25615;SDS011;13482;48.234;13.006;2022-12-24T05:23:46;2.10;;;0.68;;
25615;SDS011;13482;48.234;13.006;2022-12-24T05:29:06;0.57;;;0.30;;
25615;SDS011;13482;48.234;13.006;2022-12-24T05:31:37;0.90;;;0.40;;
25615;SDS011;13482;48.234;13.006;2022-12-24T05:34:05;1.30;;;0.40;;
25615;SDS011;13482;48.234;13.006;2022-12-24T05:36:33;0.45;;;0.30;;
25615;SDS011;13482;48.234;13.006;2022-12-24T05:39:01;0.95;;;0.50;;
25615;SDS011;13482;48.234;13.006;2022-12-24T05:41:29;0.82;;;0.38;;
25615;SDS011;13482;48.234;13.006;2022-12-24T05:43:57;2.65;;;0.70;;
25615;SDS011;13482;48.234;13.006;2022-12-24T05:46:24;2.22;;;0.55;;
25615;SDS011;13482;48.234;13.006;2022-12-24T05:48:51;0.60;;;0.30;;
25615;SDS011;13482;48.234;13.006;2022-12-24T05:51:19;1.20;;;0.40;;
25615;SDS011;13482;48.234;13.006;2022-12-24T05:53:48;1.27;;;0.47;;
25615;SDS011;13482;48.234;13.006;2022-12-24T05:56:19;0.75;;;0.35;;
25615;SDS011;13482;48.234;13.006;2022-12-24T05:58:48;1.55;;;0.30;;
25615;SDS011;13482;48.234;13.006;2022-12-24T06:01:17;2.20;;;0.40;;
25615;SDS011;13482;48.234;13.006;2022-12-24T06:03:45;1.33;;;0.30;;
25615;SDS011;13482;48.234;13.006;2022-12-24T06:06:18;1.20;;;0.50;;
25615;SDS011;13482;48.234;13.006;2022-12-24T06:08:51;1.55;;;0.43;;
25615;SDS011;13482;48.234;13.006;2022-12-24T06:11:20;1.50;;;0.50;;
25615;SDS011;13482;48.234;13.006;2022-12-24T06:13:50;1.92;;;0.60;;
25615;SDS011;13482;48.234;13.006;2022-12-24T06:16:19;1.95;;;0.50;;
25615;SDS011;13482;48.234;13.006;2022-12-24T06:18:48;1.52;;;0.40;;
25615;SDS011;13482;48.234;13.006;2022-12-24T06:21:16;1.20;;;0.30;;
25615;SDS011;13482;48.234;13.006;2022-12-24T06:23:44;1.10;;;0.28;;
25615;SDS011;13482;48.234;13.006;2022-12-24T06:26:12;1.60;;;0.30;;
25615;SDS011;13482;48.234;13.006;2022-12-24T06:28:46;1.80;;;0.50;;
25615;SDS011;13482;48.234;13.006;2022-12-24T06:31:16;1.88;;;0.50;;
25615;SDS011;13482;48.234;13.006;2022-12-24T06:36:15;1.08;;;0.30;;
25615;SDS011;13482;48.234;13.006;2022-12-24T06:38:46;1.67;;;0.30;;
25615;SDS011;13482;48.234;13.006;2022-12-24T06:41:15;1.20;;;0.35;;
25615;SDS011;13482;48.234;13.006;2022-12-24T06:43:48;0.82;;;0.30;;
25615;SDS011;13482;48.234;13.006;2022-12-24T06:46:17;1.48;;;0.50;;
25615;SDS011;13482;48.234;13.006;2022-12-24T06:48:45;1.60;;;0.60;;
25615;SDS011;13482;48.234;13.006;2022-12-24T06:51:14;1.20;;;0.32;;
25615;SDS011;13482;48.234;13.006;2022-12-24T06:56:13;1.05;;;0.45;;
25615;SDS011;13482;48.234;13.006;2022-12-24T06:58:40;1.15;;;0.50;;
25615;SDS011;13482;48.234;13.006;2022-12-24T07:01:08;0.50;;;0.30;;
25615;SDS011;13482;48.234;13.006;2022-12-24T07:03:43;1.38;;;0.45;;
25615;SDS011;13482;48.234;13.006;2022-12-24T07:06:14;1.10;;;0.47;;
25615;SDS011;13482;48.234;13.006;2022-12-24T07:08:50;1.35;;;0.30;;
25615;SDS011;13482;48.234;13.006;2022-12-24T07:11:17;1.20;;;0.30;;
25615;SDS011;13482;48.234;13.006;2022-12-24T07:13:45;1.38;;;0.30;;
25615;SDS011;13482;48.234;13.006;2022-12-24T07:16:12;1.92;;;0.50;;
25615;SDS011;13482;48.234;13.006;2022-12-24T07:18:40;2.20;;;0.60;;
25615;SDS011;13482;48.234;13.006;2022-12-24T07:21:07;2.50;;;0.50;;
25615;SDS011;13482;48.234;13.006;2022-12-24T07:23:34;2.05;;;0.40;;
25615;SDS011;13482;48.234;13.006;2022-12-24T07:26:05;2.38;;;0.52;;
25615;SDS011;13482;48.234;13.006;2022-12-24T07:28:32;1.23;;;0.30;;
25615;SDS011;13482;48.234;13.006;2022-12-24T07:31:00;1.63;;;0.77;;
25615;SDS011;13482;48.234;13.006;2022-12-24T07:33:27;1.30;;;0.40;;
25615;SDS011;13482;48.234;13.006;2022-12-24T07:36:02;2.15;;;0.65;;
25615;SDS011;13482;48.234;13.006;2022-12-24T07:38:32;1.63;;;0.50;;
25615;SDS011;13482;48.234;13.006;2022-12-24T07:41:01;2.35;;;0.50;;
25615;SDS011;13482;48.234;13.006;2022-12-24T07:43:28;1.10;;;0.30;;
25615;SDS011;13482;48.234;13.006;2022-12-24T07:45:55;1.15;;;0.40;;
25615;SDS011;13482;48.234;13.006;2022-12-24T07:48:27;1.55;;;0.40;;
25615;SDS011;13482;48.234;13.006;2022-12-24T07:50:55;1.83;;;0.50;;
25615;SDS011;13482;48.234;13.006;2022-12-24T07:53:24;0.93;;;0.38;;
25615;SDS011;13482;48.234;13.006;2022-12-24T07:55:52;1.88;;;0.55;;
25615;SDS011;13482;48.234;13.006;2022-12-24T07:58:20;1.08;;;0.40;;
25615;SDS011;13482;48.234;13.006;2022-12-24T08:00:48;0.70;;;0.40;;
25615;SDS011;13482;48.234;13.006;2022-12-24T08:03:20;2.58;;;0.63;;
25615;SDS011;13482;48.234;13.006;2022-12-24T08:05:47;1.10;;;0.60;;
25615;SDS011;13482;48.234;13.006;2022-12-24T08:08:15;1.85;;;0.90;;
25615;SDS011;13482;48.234;13.006;2022-12-24T08:10:42;1.00;;;0.40;;
25615;SDS011;13482;48.234;13.006;2022-12-24T08:13:12;1.05;;;0.40;;
25615;SDS011;13482;48.234;13.006;2022-12-24T08:15:40;1.20;;;0.60;;
25615;SDS011;13482;48.234;13.006;2022-12-24T08:18:08;1.55;;;0.70;;
25615;SDS011;13482;48.234;13.006;2022-12-24T08:20:39;1.48;;;0.57;;
25615;SDS011;13482;48.234;13.006;2022-12-24T08:23:07;0.85;;;0.35;;
25615;SDS011;13482;48.234;13.006;2022-12-24T08:25:35;1.58;;;0.43;;
25615;SDS011;13482;48.234;13.006;2022-12-24T08:28:03;0.93;;;0.30;;
25615;SDS011;13482;48.234;13.006;2022-12-24T08:30:31;1.40;;;0.40;;
25615;SDS011;13482;48.234;13.006;2022-12-24T08:32:58;1.00;;;0.30;;
25615;SDS011;13482;48.234;13.006;2022-12-24T08:35:26;1.58;;;0.22;;
25615;SDS011;13482;48.234;13.006;2022-12-24T08:37:53;0.45;;;0.20;;
25615;SDS011;13482;48.234;13.006;2022-12-24T08:40:20;1.98;;;0.30;;
25615;SDS011;13482;48.234;13.006;2022-12-24T08:42:47;1.65;;;0.60;;
25615;SDS011;13482;48.234;13.006;2022-12-24T08:45:14;2.33;;;0.80;;
25615;SDS011;13482;48.234;13.006;2022-12-24T08:47:42;2.08;;;1.15;;
25615;SDS011;13482;48.234;13.006;2022-12-24T08:50:10;1.95;;;1.05;;
25615;SDS011;13482;48.234;13.006;2022-12-24T08:52:37;3.53;;;1.30;;
25615;SDS011;13482;48.234;13.006;2022-12-24T08:55:04;2.95;;;1.20;;
25615;SDS011;13482;48.234;13.006;2022-12-24T08:57:34;1.75;;;0.90;;
25615;SDS011;13482;48.234;13.006;2022-12-24T09:00:03;2.47;;;0.68;;
25615;SDS011;13482;48.234;13.006;2022-12-24T09:02:32;1.88;;;0.70;;
25615;SDS011;13482;48.234;13.006;2022-12-24T09:05:00;1.77;;;0.73;;
25615;SDS011;13482;48.234;13.006;2022-12-24T09:07:27;2.30;;;0.93;;
25615;SDS011;13482;48.234;13.006;2022-12-24T09:09:55;2.13;;;0.70;;
25615;SDS011;13482;48.234;13.006;2022-12-24T09:12:22;1.55;;;0.68;;
25615;SDS011;13482;48.234;13.006;2022-12-24T09:14:49;1.23;;;0.50;;
25615;SDS011;13482;48.234;13.006;2022-12-24T09:17:17;0.80;;;0.50;;
25615;SDS011;13482;48.234;13.006;2022-12-24T09:19:44;0.70;;;0.45;;
25615;SDS011;13482;48.234;13.006;2022-12-24T09:22:12;1.73;;;0.50;;
25615;SDS011;13482;48.234;13.006;2022-12-24T09:24:39;1.73;;;0.60;;
25615;SDS011;13482;48.234;13.006;2022-12-24T09:27:06;1.20;;;0.52;;
25615;SDS011;13482;48.234;13.006;2022-12-24T09:29:34;1.27;;;0.57;;
25615;SDS011;13482;48.234;13.006;2022-12-24T09:32:01;1.13;;;0.45;;
25615;SDS011;13482;48.234;13.006;2022-12-24T09:34:29;1.52;;;0.60;;
25615;SDS011;13482;48.234;13.006;2022-12-24T09:36:56;1.88;;;0.60;;
25615;SDS011;13482;48.234;13.006;2022-12-24T09:39:25;2.25;;;0.70;;
25615;SDS011;13482;48.234;13.006;2022-12-24T09:45:17;1.00;;;0.45;;
25615;SDS011;13482;48.234;13.006;2022-12-24T09:47:58;2.78;;;0.60;;
25615;SDS011;13482;48.234;13.006;2022-12-24T09:50:50;1.83;;;0.80;;
25615;SDS011;13482;48.234;13.006;2022-12-24T09:56:46;2.25;;;0.57;;
25615;SDS011;13482;48.234;13.006;2022-12-24T09:59:21;1.48;;;0.60;;
25615;SDS011;13482;48.234;13.006;2022-12-24T10:01:53;1.80;;;0.70;;
25615;SDS011;13482;48.234;13.006;2022-12-24T10:04:25;2.47;;;1.13;;
25615;SDS011;13482;48.234;13.006;2022-12-24T10:06:59;1.83;;;0.98;;
25615;SDS011;13482;48.234;13.006;2022-12-24T10:16:11;1.63;;;0.70;;
25615;SDS011;13482;48.234;13.006;2022-12-24T10:22:16;1.15;;;0.60;;
25615;SDS011;13482;48.234;13.006;2022-12-24T10:25:28;1.08;;;0.50;;
25615;SDS011;13482;48.234;13.006;2022-12-24T10:30:40;1.95;;;0.70;;
25615;SDS011;13482;48.234;13.006;2022-12-24T10:33:12;0.93;;;0.40;;
25615;SDS011;13482;48.234;13.006;2022-12-24T10:36:07;0.98;;;0.30;;
25615;SDS011;13482;48.234;13.006;2022-12-24T10:38:45;1.67;;;0.45;;
25615;SDS011;13482;48.234;13.006;2022-12-24T10:41:13;0.90;;;0.32;;
25615;SDS011;13482;48.234;13.006;2022-12-24T10:43:41;0.50;;;0.30;;
25615;SDS011;13482;48.234;13.006;2022-12-24T10:46:21;0.80;;;0.50;;
25615;SDS011;13482;48.234;13.006;2022-12-24T10:49:43;1.42;;;0.63;;
25615;SDS011;13482;48.234;13.006;2022-12-24T10:51:54;1.73;;;0.70;;
25615;SDS011;13482;48.234;13.006;2022-12-24T10:54:28;1.38;;;0.68;;
25615;SDS011;13482;48.234;13.006;2022-12-24T10:57:05;2.22;;;1.20;;
25615;SDS011;13482;48.234;13.006;2022-12-24T10:59:52;3.53;;;2.08;;
25615;SDS011;13482;48.234;13.006;2022-12-24T11:08:01;2.95;;;2.22;;
25615;SDS011;13482;48.234;13.006;2022-12-24T11:10:31;2.72;;;2.10;;
25615;SDS011;13482;48.234;13.006;2022-12-24T11:13:02;2.33;;;1.42;;
25615;SDS011;13482;48.234;13.006;2022-12-24T11:15:50;1.70;;;1.13;;
25615;SDS011;13482;48.234;13.006;2022-12-24T11:18:33;2.78;;;1.10;;
25615;SDS011;13482;48.234;13.006;2022-12-24T11:21:04;1.88;;;0.80;;
25615;SDS011;13482;48.234;13.006;2022-12-24T11:23:32;1.50;;;0.90;;
25615;SDS011;13482;48.234;13.006;2022-12-24T11:25:59;1.50;;;0.75;;
25615;SDS011;13482;48.234;13.006;2022-12-24T11:28:30;1.50;;;0.80;;
25615;SDS011;13482;48.234;13.006;2022-12-24T11:31:05;1.50;;;0.60;;
25615;SDS011;13482;48.234;13.006;2022-12-24T11:33:46;1.10;;;0.50;;
25615;SDS011;13482;48.234;13.006;2022-12-24T11:36:21;1.80;;;0.45;;
25615;SDS011;13482;48.234;13.006;2022-12-24T11:38:56;1.33;;;0.60;;
25615;SDS011;13482;48.234;13.006;2022-12-24T11:41:24;0.82;;;0.30;;
25615;SDS011;13482;48.234;13.006;2022-12-24T11:44:01;1.48;;;0.57;;
25615;SDS011;13482;48.234;13.006;2022-12-24T11:46:37;1.13;;;0.47;;
25615;SDS011;13482;48.234;13.006;2022-12-24T11:51:38;1.98;;;0.60;;
25615;SDS011;13482;48.234;13.006;2022-12-24T11:54:34;1.23;;;0.40;;
25615;SDS011;13482;48.234;13.006;2022-12-24T11:57:27;3.47;;;0.63;;
25615;SDS011;13482;48.234;13.006;2022-12-24T12:00:08;3.13;;;0.90;;
25615;SDS011;13482;48.234;13.006;2022-12-24T12:02:37;1.17;;;0.40;;
25615;SDS011;13482;48.234;13.006;2022-12-24T12:05:18;1.88;;;0.60;;
25615;SDS011;13482;48.234;13.006;2022-12-24T12:07:51;1.88;;;0.40;;
25615;SDS011;13482;48.234;13.006;2022-12-24T12:10:28;2.10;;;0.57;;
25615;SDS011;13482;48.234;13.006;2022-12-24T12:13:02;0.80;;;0.50;;
25615;SDS011;13482;48.234;13.006;2022-12-24T12:18:40;2.17;;;0.50;;
25615;SDS011;13482;48.234;13.006;2022-12-24T12:21:15;3.05;;;0.80;;
25615;SDS011;13482;48.234;13.006;2022-12-24T12:28:50;0.77;;;0.30;;
25615;SDS011;13482;48.234;13.006;2022-12-24T12:31:37;2.38;;;0.70;;
25615;SDS011;13482;48.234;13.006;2022-12-24T12:34:24;1.77;;;0.95;;
25615;SDS011;13482;48.234;13.006;2022-12-24T12:37:00;2.83;;;0.90;;
25615;SDS011;13482;48.234;13.006;2022-12-24T12:39:40;2.28;;;0.70;;
25615;SDS011;13482;48.234;13.006;2022-12-24T12:47:45;1.75;;;0.98;;
25615;SDS011;13482;48.234;13.006;2022-12-24T12:50:52;1.73;;;1.00;;
25615;SDS011;13482;48.234;13.006;2022-12-24T12:56:43;1.80;;;0.70;;
25615;SDS011;13482;48.234;13.006;2022-12-24T12:59:19;1.70;;;0.60;;
25615;SDS011;13482;48.234;13.006;2022-12-24T13:02:08;1.40;;;0.60;;
25615;SDS011;13482;48.234;13.006;2022-12-24T13:21:47;1.92;;;0.60;;
25615;SDS011;13482;48.234;13.006;2022-12-24T13:24:17;1.55;;;0.60;;
25615;SDS011;13482;48.234;13.006;2022-12-24T13:29:42;1.65;;;0.50;;
25615;SDS011;13482;48.234;13.006;2022-12-24T13:34:56;1.55;;;0.40;;
25615;SDS011;13482;48.234;13.006;2022-12-24T13:47:55;1.65;;;0.60;;
25615;SDS011;13482;48.234;13.006;2022-12-24T13:56:06;0.85;;;0.35;;
25615;SDS011;13482;48.234;13.006;2022-12-24T13:58:44;0.98;;;0.43;;
25615;SDS011;13482;48.234;13.006;2022-12-24T14:01:17;1.10;;;0.40;;
25615;SDS011;13482;48.234;13.006;2022-12-24T14:03:50;1.80;;;0.47;;
25615;SDS011;13482;48.234;13.006;2022-12-24T14:06:27;1.88;;;0.40;;
25615;SDS011;13482;48.234;13.006;2022-12-24T14:09:12;1.50;;;0.40;;
25615;SDS011;13482;48.234;13.006;2022-12-24T14:16:56;1.33;;;0.40;;
25615;SDS011;13482;48.234;13.006;2022-12-24T14:19:37;5.30;;;3.10;;
25615;SDS011;13482;48.234;13.006;2022-12-24T14:25:02;3.40;;;2.50;;
25615;SDS011;13482;48.234;13.006;2022-12-24T14:28:03;2.55;;;1.50;;
25615;SDS011;13482;48.234;13.006;2022-12-24T14:30:32;4.53;;;1.40;;
25615;SDS011;13482;48.234;13.006;2022-12-24T14:32:59;2.33;;;1.05;;
25615;SDS011;13482;48.234;13.006;2022-12-24T14:37:57;1.90;;;0.80;;
25615;SDS011;13482;48.234;13.006;2022-12-24T14:40:29;2.97;;;0.70;;
25615;SDS011;13482;48.234;13.006;2022-12-24T14:45:33;2.53;;;0.90;;
25615;SDS011;13482;48.234;13.006;2022-12-24T14:48:21;2.92;;;0.82;;
25615;SDS011;13482;48.234;13.006;2022-12-24T14:51:26;1.95;;;1.00;;
25615;SDS011;13482;48.234;13.006;2022-12-24T14:56:46;2.15;;;0.80;;
25615;SDS011;13482;48.234;13.006;2022-12-24T14:59:14;2.38;;;0.68;;
25615;SDS011;13482;48.234;13.006;2022-12-24T15:01:43;1.75;;;0.60;;
25615;SDS011;13482;48.234;13.006;2022-12-24T15:06:44;3.20;;;0.80;;
25615;SDS011;13482;48.234;13.006;2022-12-24T15:09:19;4.22;;;1.08;;
25615;SDS011;13482;48.234;13.006;2022-12-24T15:11:55;2.33;;;0.80;;
25615;SDS011;13482;48.234;13.006;2022-12-24T15:14:26;3.20;;;1.10;;
25615;SDS011;13482;48.234;13.006;2022-12-24T15:16:57;2.75;;;1.10;;
25615;SDS011;13482;48.234;13.006;2022-12-24T15:19:32;3.08;;;1.42;;
25615;SDS011;13482;48.234;13.006;2022-12-24T15:22:06;2.92;;;1.10;;
25615;SDS011;13482;48.234;13.006;2022-12-24T15:24:47;2.20;;;0.95;;
25615;SDS011;13482;48.234;13.006;2022-12-24T15:27:21;2.20;;;1.30;;
25615;SDS011;13482;48.234;13.006;2022-12-24T15:29:52;2.38;;;0.90;;
25615;SDS011;13482;48.234;13.006;2022-12-24T15:32:22;1.10;;;0.50;;
25615;SDS011;13482;48.234;13.006;2022-12-24T15:34:54;1.38;;;0.60;;
25615;SDS011;13482;48.234;13.006;2022-12-24T15:37:22;1.00;;;0.47;;
25615;SDS011;13482;48.234;13.006;2022-12-24T15:42:35;1.42;;;0.63;;
25615;SDS011;13482;48.234;13.006;2022-12-24T15:47:58;2.60;;;0.90;;
25615;SDS011;13482;48.234;13.006;2022-12-24T15:50:36;1.70;;;0.70;;
25615;SDS011;13482;48.234;13.006;2022-12-24T15:53:13;1.58;;;0.65;;
25615;SDS011;13482;48.234;13.006;2022-12-24T15:56:08;2.10;;;0.73;;
25615;SDS011;13482;48.234;13.006;2022-12-24T16:02:16;2.70;;;1.17;;
25615;SDS011;13482;48.234;13.006;2022-12-24T16:10:53;2.13;;;1.00;;
25615;SDS011;13482;48.234;13.006;2022-12-24T16:14:13;2.70;;;1.30;;
25615;SDS011;13482;48.234;13.006;2022-12-24T16:16:46;2.05;;;1.23;;
25615;SDS011;13482;48.234;13.006;2022-12-24T16:19:18;2.65;;;1.50;;
25615;SDS011;13482;48.234;13.006;2022-12-24T16:21:52;2.10;;;1.10;;
25615;SDS011;13482;48.234;13.006;2022-12-24T16:24:47;3.40;;;1.20;;
25615;SDS011;13482;48.234;13.006;2022-12-24T16:27:14;2.72;;;1.40;;
25615;SDS011;13482;48.234;13.006;2022-12-24T16:29:41;2.88;;;1.63;;
25615;SDS011;13482;48.234;13.006;2022-12-24T16:32:28;3.45;;;1.67;;
25615;SDS011;13482;48.234;13.006;2022-12-24T16:35:00;4.22;;;2.58;;
25615;SDS011;13482;48.234;13.006;2022-12-24T16:37:30;3.63;;;2.33;;
25615;SDS011;13482;48.234;13.006;2022-12-24T16:39:57;4.97;;;2.67;;
25615;SDS011;13482;48.234;13.006;2022-12-24T16:42:26;4.13;;;2.83;;
25615;SDS011;13482;48.234;13.006;2022-12-24T16:45:11;4.20;;;2.70;;
25615;SDS011;13482;48.234;13.006;2022-12-24T16:47:38;3.30;;;2.00;;
25615;SDS011;13482;48.234;13.006;2022-12-24T16:50:13;3.63;;;1.65;;
25615;SDS011;13482;48.234;13.006;2022-12-24T16:52:41;3.80;;;2.30;;
25615;SDS011;13482;48.234;13.006;2022-12-24T16:55:11;4.68;;;2.50;;
25615;SDS011;13482;48.234;13.006;2022-12-24T16:57:40;4.55;;;2.70;;
25615;SDS011;13482;48.234;13.006;2022-12-24T17:00:13;4.25;;;2.45;;
25615;SDS011;13482;48.234;13.006;2022-12-24T17:02:46;4.80;;;2.67;;
25615;SDS011;13482;48.234;13.006;2022-12-24T17:05:15;4.13;;;2.85;;
25615;SDS011;13482;48.234;13.006;2022-12-24T17:07:42;4.70;;;2.63;;
25615;SDS011;13482;48.234;13.006;2022-12-24T17:10:10;4.00;;;2.33;;
25615;SDS011;13482;48.234;13.006;2022-12-24T17:12:39;3.53;;;2.45;;
25615;SDS011;13482;48.234;13.006;2022-12-24T17:15:08;3.55;;;2.30;;
25615;SDS011;13482;48.234;13.006;2022-12-24T17:17:35;2.85;;;1.92;;
25615;SDS011;13482;48.234;13.006;2022-12-24T17:20:03;3.58;;;2.22;;
25615;SDS011;13482;48.234;13.006;2022-12-24T17:22:31;4.13;;;2.25;;
25615;SDS011;13482;48.234;13.006;2022-12-24T17:24:58;3.53;;;2.17;;
25615;SDS011;13482;48.234;13.006;2022-12-24T17:27:25;3.63;;;2.40;;
25615;SDS011;13482;48.234;13.006;2022-12-24T17:29:52;4.57;;;2.78;;
25615;SDS011;13482;48.234;13.006;2022-12-24T17:32:19;6.93;;;4.32;;